sensor_id;sensor_type;location;lat;lon;timestamp;temperature;humidity
2010;DHT22;1008;47.404;8.502;2022-10-31T00:01:11;14.30;99.90
2010;DHT22;1008;47.404;8.502;2022-10-31T00:03:39;14.40;99.90
2010;DHT22;1008;47.404;8.502;2022-10-31T00:06:06;14.40;99.90
2010;DHT22;1008;47.404;8.502;2022-10-31T00:08:33;14.40;99.90
2010;DHT22;1008;47.404;8.502;2022-10-31T00:11:00;14.40;99.90
2010;DHT22;1008;47.404;8.502;2022-10-31T00:13:27;14.50;99.90
2010;DHT22;1008;47.404;8.502;2022-10-31T00:15:53;14.70;99.90
2010;DHT22;1008;47.404;8.502;2022-10-31T00:18:20;14.50;99.90
2010;DHT22;1008;47.404;8.502;2022-10-31T00:20:48;14.50;99.90
2010;DHT22;1008;47.404;8.502;2022-10-31T00:23:15;14.50;99.90
2010;DHT22;1008;47.404;8.502;2022-10-31T00:25:42;14.50;99.90
2010;DHT22;1008;47.404;8.502;2022-10-31T00:28:10;14.50;99.90
2010;DHT22;1008;47.404;8.502;2022-10-31T00:30:37;14.50;99.90
2010;DHT22;1008;47.404;8.502;2022-10-31T00:33:04;14.50;99.90
2010;DHT22;1008;47.404;8.502;2022-10-31T00:35:31;14.50;99.90
2010;DHT22;1008;47.404;8.502;2022-10-31T00:37:59;14.30;99.90
2010;DHT22;1008;47.404;8.502;2022-10-31T00:40:26;14.30;99.90
2010;DHT22;1008;47.404;8.502;2022-10-31T00:42:53;14.40;99.90
2010;DHT22;1008;47.404;8.502;2022-10-31T00:45:20;14.50;99.90
2010;DHT22;1008;47.404;8.502;2022-10-31T00:47:47;14.50;99.90
2010;DHT22;1008;47.404;8.502;2022-10-31T00:50:13;14.40;99.90
2010;DHT22;1008;47.404;8.502;2022-10-31T00:52:40;14.30;99.90
2010;DHT22;1008;47.404;8.502;2022-10-31T00:55:08;14.20;99.90
2010;DHT22;1008;47.404;8.502;2022-10-31T00:57:35;14.20;99.90
2010;DHT22;1008;47.404;8.502;2022-10-31T01:00:02;14.00;99.90
2010;DHT22;1008;47.404;8.502;2022-10-31T01:02:29;14.00;99.90
2010;DHT22;1008;47.404;8.502;2022-10-31T01:04:56;14.10;99.90
2010;DHT22;1008;47.404;8.502;2022-10-31T01:07:23;14.20;99.90
2010;DHT22;1008;47.404;8.502;2022-10-31T01:09:49;14.20;99.90
2010;DHT22;1008;47.404;8.502;2022-10-31T01:12:17;14.00;99.90
2010;DHT22;1008;47.404;8.502;2022-10-31T01:14:44;14.00;99.90
2010;DHT22;1008;47.404;8.502;2022-10-31T01:17:12;14.00;99.90
2010;DHT22;1008;47.404;8.502;2022-10-31T01:19:39;14.00;99.90
2010;DHT22;1008;47.404;8.502;2022-10-31T01:22:05;13.90;99.90
2010;DHT22;1008;47.404;8.502;2022-10-31T01:24:33;13.90;99.90
2010;DHT22;1008;47.404;8.502;2022-10-31T01:27:00;13.80;99.90
2010;DHT22;1008;47.404;8.502;2022-10-31T01:29:28;13.80;99.90
2010;DHT22;1008;47.404;8.502;2022-10-31T01:31:55;13.80;99.90
2010;DHT22;1008;47.404;8.502;2022-10-31T01:34:21;13.80;99.90
2010;DHT22;1008;47.404;8.502;2022-10-31T01:36:48;13.80;99.90
2010;DHT22;1008;47.404;8.502;2022-10-31T01:39:17;13.70;99.90
2010;DHT22;1008;47.404;8.502;2022-10-31T01:41:46;13.70;99.90
2010;DHT22;1008;47.404;8.502;2022-10-31T01:44:53;13.50;99.90
2010;DHT22;1008;47.404;8.502;2022-10-31T01:47:26;13.70;99.90
2010;DHT22;1008;47.404;8.502;2022-10-31T01:49:58;13.60;99.90
2010;DHT22;1008;47.404;8.502;2022-10-31T01:52:29;13.60;99.90
2010;DHT22;1008;47.404;8.502;2022-10-31T01:55:00;13.60;99.90
2010;DHT22;1008;47.404;8.502;2022-10-31T01:57:29;13.60;99.90
2010;DHT22;1008;47.404;8.502;2022-10-31T02:00:00;13.40;99.90
2010;DHT22;1008;47.404;8.502;2022-10-31T02:02:30;13.30;99.90
2010;DHT22;1008;47.404;8.502;2022-10-31T02:05:00;13.40;99.90
2010;DHT22;1008;47.404;8.502;2022-10-31T02:07:31;13.40;99.90
2010;DHT22;1008;47.404;8.502;2022-10-31T02:10:01;13.50;99.90
2010;DHT22;1008;47.404;8.502;2022-10-31T02:12:29;13.40;99.90
2010;DHT22;1008;47.404;8.502;2022-10-31T02:14:57;13.40;99.90
2010;DHT22;1008;47.404;8.502;2022-10-31T02:17:24;13.40;99.90
2010;DHT22;1008;47.404;8.502;2022-10-31T02:19:56;13.40;99.90
2010;DHT22;1008;47.404;8.502;2022-10-31T02:22:32;13.40;99.90
2010;DHT22;1008;47.404;8.502;2022-10-31T02:25:12;13.20;99.90
2010;DHT22;1008;47.404;8.502;2022-10-31T02:28:01;13.30;99.90
2010;DHT22;1008;47.404;8.502;2022-10-31T02:30:37;13.40;99.90
2010;DHT22;1008;47.404;8.502;2022-10-31T02:33:15;13.40;99.90
2010;DHT22;1008;47.404;8.502;2022-10-31T02:35:51;13.40;99.90
2010;DHT22;1008;47.404;8.502;2022-10-31T02:38:27;13.20;99.90
2010;DHT22;1008;47.404;8.502;2022-10-31T02:41:01;13.10;99.90
2010;DHT22;1008;47.404;8.502;2022-10-31T02:43:36;13.10;99.90
2010;DHT22;1008;47.404;8.502;2022-10-31T02:46:11;13.10;99.90
2010;DHT22;1008;47.404;8.502;2022-10-31T02:48:43;13.10;99.90
2010;DHT22;1008;47.404;8.502;2022-10-31T02:51:11;13.20;99.90
2010;DHT22;1008;47.404;8.502;2022-10-31T02:53:39;13.10;99.90
2010;DHT22;1008;47.404;8.502;2022-10-31T02:56:08;13.00;99.90
2010;DHT22;1008;47.404;8.502;2022-10-31T02:58:41;13.00;99.90
2010;DHT22;1008;47.404;8.502;2022-10-31T03:01:31;13.00;99.90
2010;DHT22;1008;47.404;8.502;2022-10-31T03:04:21;13.00;99.90
2010;DHT22;1008;47.404;8.502;2022-10-31T03:06:53;13.10;99.90
2010;DHT22;1008;47.404;8.502;2022-10-31T03:09:24;13.10;99.90
2010;DHT22;1008;47.404;8.502;2022-10-31T03:11:58;13.10;99.90
2010;DHT22;1008;47.404;8.502;2022-10-31T03:14:31;12.90;99.90
2010;DHT22;1008;47.404;8.502;2022-10-31T03:17:03;12.90;99.90
2010;DHT22;1008;47.404;8.502;2022-10-31T03:19:37;12.80;99.90
2010;DHT22;1008;47.404;8.502;2022-10-31T03:22:10;12.90;99.90
2010;DHT22;1008;47.404;8.502;2022-10-31T03:24:39;13.00;99.90
2010;DHT22;1008;47.404;8.502;2022-10-31T03:27:09;12.90;99.90
2010;DHT22;1008;47.404;8.502;2022-10-31T03:29:37;12.90;99.90
2010;DHT22;1008;47.404;8.502;2022-10-31T03:32:07;12.90;99.90
2010;DHT22;1008;47.404;8.502;2022-10-31T03:34:40;12.90;99.90
2010;DHT22;1008;47.404;8.502;2022-10-31T03:37:10;12.90;99.90
2010;DHT22;1008;47.404;8.502;2022-10-31T03:39:39;13.00;99.90
2010;DHT22;1008;47.404;8.502;2022-10-31T03:42:10;12.90;99.90
2010;DHT22;1008;47.404;8.502;2022-10-31T03:44:40;12.90;99.90
2010;DHT22;1008;47.404;8.502;2022-10-31T03:47:09;12.80;99.90
2010;DHT22;1008;47.404;8.502;2022-10-31T03:49:37;12.80;99.90
2010;DHT22;1008;47.404;8.502;2022-10-31T03:52:12;12.80;99.90
2010;DHT22;1008;47.404;8.502;2022-10-31T03:54:42;12.60;99.90
2010;DHT22;1008;47.404;8.502;2022-10-31T03:57:14;12.50;99.90
2010;DHT22;1008;47.404;8.502;2022-10-31T03:59:46;12.60;99.90
2010;DHT22;1008;47.404;8.502;2022-10-31T04:02:17;12.50;99.90
2010;DHT22;1008;47.404;8.502;2022-10-31T04:04:47;12.50;99.90
2010;DHT22;1008;47.404;8.502;2022-10-31T04:07:15;12.30;99.90
2010;DHT22;1008;47.404;8.502;2022-10-31T04:09:44;12.10;99.90
2010;DHT22;1008;47.404;8.502;2022-10-31T04:12:14;12.10;99.90
2010;DHT22;1008;47.404;8.502;2022-10-31T04:14:45;12.10;99.90
2010;DHT22;1008;47.404;8.502;2022-10-31T04:17:15;12.10;99.90
2010;DHT22;1008;47.404;8.502;2022-10-31T04:19:42;12.00;99.90
2010;DHT22;1008;47.404;8.502;2022-10-31T04:22:10;12.10;99.90
2010;DHT22;1008;47.404;8.502;2022-10-31T04:24:39;12.10;99.90
2010;DHT22;1008;47.404;8.502;2022-10-31T04:27:06;12.10;99.90
2010;DHT22;1008;47.404;8.502;2022-10-31T04:29:33;12.20;99.90
2010;DHT22;1008;47.404;8.502;2022-10-31T04:31:59;12.30;99.90
2010;DHT22;1008;47.404;8.502;2022-10-31T04:34:26;12.10;99.90
2010;DHT22;1008;47.404;8.502;2022-10-31T04:36:53;11.90;99.90
2010;DHT22;1008;47.404;8.502;2022-10-31T04:39:21;11.70;99.90
2010;DHT22;1008;47.404;8.502;2022-10-31T04:41:48;11.80;99.90
2010;DHT22;1008;47.404;8.502;2022-10-31T04:44:15;11.60;99.90
2010;DHT22;1008;47.404;8.502;2022-10-31T04:46:42;11.60;99.90
2010;DHT22;1008;47.404;8.502;2022-10-31T04:49:08;11.50;99.90
2010;DHT22;1008;47.404;8.502;2022-10-31T04:51:35;11.40;99.90
2010;DHT22;1008;47.404;8.502;2022-10-31T04:54:02;11.50;99.90
2010;DHT22;1008;47.404;8.502;2022-10-31T04:56:30;11.60;99.90
2010;DHT22;1008;47.404;8.502;2022-10-31T04:58:57;11.70;99.90
2010;DHT22;1008;47.404;8.502;2022-10-31T05:01:24;11.80;99.90
2010;DHT22;1008;47.404;8.502;2022-10-31T05:03:50;11.70;99.90
2010;DHT22;1008;47.404;8.502;2022-10-31T05:06:17;12.00;99.90
2010;DHT22;1008;47.404;8.502;2022-10-31T05:08:44;11.80;99.90
2010;DHT22;1008;47.404;8.502;2022-10-31T05:11:11;11.90;99.90
2010;DHT22;1008;47.404;8.502;2022-10-31T05:13:39;11.80;99.90
2010;DHT22;1008;47.404;8.502;2022-10-31T05:16:06;11.90;99.90
2010;DHT22;1008;47.404;8.502;2022-10-31T05:18:33;11.80;99.90
2010;DHT22;1008;47.404;8.502;2022-10-31T05:20:59;11.80;99.90
2010;DHT22;1008;47.404;8.502;2022-10-31T05:23:26;11.80;99.90
2010;DHT22;1008;47.404;8.502;2022-10-31T05:25:53;11.60;99.90
2010;DHT22;1008;47.404;8.502;2022-10-31T05:28:19;11.40;99.90
2010;DHT22;1008;47.404;8.502;2022-10-31T05:30:48;11.40;99.90
2010;DHT22;1008;47.404;8.502;2022-10-31T05:33:15;11.30;99.90
2010;DHT22;1008;47.404;8.502;2022-10-31T05:35:42;11.20;99.90
2010;DHT22;1008;47.404;8.502;2022-10-31T05:38:10;11.20;99.90
2010;DHT22;1008;47.404;8.502;2022-10-31T05:40:37;11.30;99.90
2010;DHT22;1008;47.404;8.502;2022-10-31T05:43:04;11.30;99.90
2010;DHT22;1008;47.404;8.502;2022-10-31T05:45:31;11.50;99.90
2010;DHT22;1008;47.404;8.502;2022-10-31T05:48:00;11.60;99.90
2010;DHT22;1008;47.404;8.502;2022-10-31T05:50:28;11.60;99.90
2010;DHT22;1008;47.404;8.502;2022-10-31T05:52:57;11.60;99.90
2010;DHT22;1008;47.404;8.502;2022-10-31T05:55:24;11.50;99.90
2010;DHT22;1008;47.404;8.502;2022-10-31T05:57:52;11.50;99.90
2010;DHT22;1008;47.404;8.502;2022-10-31T06:00:19;11.40;99.90
2010;DHT22;1008;47.404;8.502;2022-10-31T06:02:46;11.40;99.90
2010;DHT22;1008;47.404;8.502;2022-10-31T06:05:15;11.40;99.90
2010;DHT22;1008;47.404;8.502;2022-10-31T06:07:42;11.40;99.90
2010;DHT22;1008;47.404;8.502;2022-10-31T06:10:09;11.50;99.90
2010;DHT22;1008;47.404;8.502;2022-10-31T06:12:36;11.50;99.90
2010;DHT22;1008;47.404;8.502;2022-10-31T06:15:05;11.60;99.90
2010;DHT22;1008;47.404;8.502;2022-10-31T06:17:32;11.60;99.90
2010;DHT22;1008;47.404;8.502;2022-10-31T06:19:59;11.60;99.90
2010;DHT22;1008;47.404;8.502;2022-10-31T06:22:28;11.60;99.90
2010;DHT22;1008;47.404;8.502;2022-10-31T06:24:54;11.70;99.90
2010;DHT22;1008;47.404;8.502;2022-10-31T06:27:22;11.50;99.90
2010;DHT22;1008;47.404;8.502;2022-10-31T06:29:49;11.60;99.90
2010;DHT22;1008;47.404;8.502;2022-10-31T06:32:16;11.90;99.90
2010;DHT22;1008;47.404;8.502;2022-10-31T06:34:43;12.10;99.90
2010;DHT22;1008;47.404;8.502;2022-10-31T06:37:13;12.10;99.90
2010;DHT22;1008;47.404;8.502;2022-10-31T06:39:42;12.20;99.90
2010;DHT22;1008;47.404;8.502;2022-10-31T06:42:08;12.10;99.90
2010;DHT22;1008;47.404;8.502;2022-10-31T06:44:35;12.20;99.90
2010;DHT22;1008;47.404;8.502;2022-10-31T06:47:02;12.20;99.90
2010;DHT22;1008;47.404;8.502;2022-10-31T06:49:28;12.20;99.90
2010;DHT22;1008;47.404;8.502;2022-10-31T06:51:55;12.30;99.90
2010;DHT22;1008;47.404;8.502;2022-10-31T06:54:22;12.10;99.90
2010;DHT22;1008;47.404;8.502;2022-10-31T06:56:50;11.90;99.90
2010;DHT22;1008;47.404;8.502;2022-10-31T06:59:17;11.90;99.90
2010;DHT22;1008;47.404;8.502;2022-10-31T07:01:44;11.90;99.90
2010;DHT22;1008;47.404;8.502;2022-10-31T07:04:11;11.80;99.90
2010;DHT22;1008;47.404;8.502;2022-10-31T07:06:38;12.00;99.90
2010;DHT22;1008;47.404;8.502;2022-10-31T07:09:05;12.00;99.90
2010;DHT22;1008;47.404;8.502;2022-10-31T07:11:32;12.10;99.90
2010;DHT22;1008;47.404;8.502;2022-10-31T07:14:00;12.10;99.90
2010;DHT22;1008;47.404;8.502;2022-10-31T07:16:27;12.00;99.90
2010;DHT22;1008;47.404;8.502;2022-10-31T07:18:54;11.90;99.90
2010;DHT22;1008;47.404;8.502;2022-10-31T07:21:20;12.00;99.90
2010;DHT22;1008;47.404;8.502;2022-10-31T07:23:48;12.00;99.90
2010;DHT22;1008;47.404;8.502;2022-10-31T07:26:15;11.90;99.90
2010;DHT22;1008;47.404;8.502;2022-10-31T07:28:41;12.00;99.90
2010;DHT22;1008;47.404;8.502;2022-10-31T07:31:10;12.20;99.90
2010;DHT22;1008;47.404;8.502;2022-10-31T07:33:36;12.40;99.90
2010;DHT22;1008;47.404;8.502;2022-10-31T07:36:03;12.30;99.90
2010;DHT22;1008;47.404;8.502;2022-10-31T07:38:30;12.60;99.90
2010;DHT22;1008;47.404;8.502;2022-10-31T07:40:57;12.60;99.90
2010;DHT22;1008;47.404;8.502;2022-10-31T07:43:24;12.80;99.90
2010;DHT22;1008;47.404;8.502;2022-10-31T07:45:51;13.00;99.90
2010;DHT22;1008;47.404;8.502;2022-10-31T07:48:19;13.00;99.90
2010;DHT22;1008;47.404;8.502;2022-10-31T07:50:46;12.90;99.90
2010;DHT22;1008;47.404;8.502;2022-10-31T07:53:14;12.70;99.90
2010;DHT22;1008;47.404;8.502;2022-10-31T07:55:41;12.70;99.90
2010;DHT22;1008;47.404;8.502;2022-10-31T07:58:09;12.60;99.90
2010;DHT22;1008;47.404;8.502;2022-10-31T08:00:37;12.70;99.90
2010;DHT22;1008;47.404;8.502;2022-10-31T08:03:06;12.80;99.90
2010;DHT22;1008;47.404;8.502;2022-10-31T08:05:35;12.90;99.90
2010;DHT22;1008;47.404;8.502;2022-10-31T08:08:02;13.10;99.90
2010;DHT22;1008;47.404;8.502;2022-10-31T08:10:29;13.20;99.90
2010;DHT22;1008;47.404;8.502;2022-10-31T08:12:57;13.10;99.90
2010;DHT22;1008;47.404;8.502;2022-10-31T08:15:25;13.20;99.90
2010;DHT22;1008;47.404;8.502;2022-10-31T08:17:52;13.20;99.90
2010;DHT22;1008;47.404;8.502;2022-10-31T08:20:19;13.10;99.90
2010;DHT22;1008;47.404;8.502;2022-10-31T08:22:55;13.40;99.90
2010;DHT22;1008;47.404;8.502;2022-10-31T08:25:22;13.60;99.90
2010;DHT22;1008;47.404;8.502;2022-10-31T08:27:50;13.40;99.90
2010;DHT22;1008;47.404;8.502;2022-10-31T08:30:17;13.40;99.90
2010;DHT22;1008;47.404;8.502;2022-10-31T08:32:44;13.50;99.90
2010;DHT22;1008;47.404;8.502;2022-10-31T08:35:11;13.60;99.90
2010;DHT22;1008;47.404;8.502;2022-10-31T08:37:37;13.40;99.90
2010;DHT22;1008;47.404;8.502;2022-10-31T08:40:06;13.40;99.90
2010;DHT22;1008;47.404;8.502;2022-10-31T08:42:34;13.40;99.90
2010;DHT22;1008;47.404;8.502;2022-10-31T08:45:01;13.40;99.90
2010;DHT22;1008;47.404;8.502;2022-10-31T08:47:28;13.20;99.90
2010;DHT22;1008;47.404;8.502;2022-10-31T08:49:55;13.60;99.90
2010;DHT22;1008;47.404;8.502;2022-10-31T08:52:23;13.60;99.90
2010;DHT22;1008;47.404;8.502;2022-10-31T08:54:50;13.80;99.90
2010;DHT22;1008;47.404;8.502;2022-10-31T08:57:18;13.60;99.90
2010;DHT22;1008;47.404;8.502;2022-10-31T08:59:45;13.50;99.90
2010;DHT22;1008;47.404;8.502;2022-10-31T09:02:12;13.60;99.90
2010;DHT22;1008;47.404;8.502;2022-10-31T09:04:38;13.50;99.90
2010;DHT22;1008;47.404;8.502;2022-10-31T09:07:05;13.70;99.90
2010;DHT22;1008;47.404;8.502;2022-10-31T09:09:32;13.60;99.90
2010;DHT22;1008;47.404;8.502;2022-10-31T09:11:58;13.60;99.90
2010;DHT22;1008;47.404;8.502;2022-10-31T09:14:26;13.70;99.90
2010;DHT22;1008;47.404;8.502;2022-10-31T09:16:53;13.60;99.90
2010;DHT22;1008;47.404;8.502;2022-10-31T09:19:20;13.50;99.90
2010;DHT22;1008;47.404;8.502;2022-10-31T09:21:47;14.00;99.90
2010;DHT22;1008;47.404;8.502;2022-10-31T09:24:13;14.30;99.90
2010;DHT22;1008;47.404;8.502;2022-10-31T09:26:40;14.50;99.90
2010;DHT22;1008;47.404;8.502;2022-10-31T09:29:07;15.00;99.90
2010;DHT22;1008;47.404;8.502;2022-10-31T09:31:36;15.30;99.90
2010;DHT22;1008;47.404;8.502;2022-10-31T09:34:03;15.60;99.90
2010;DHT22;1008;47.404;8.502;2022-10-31T09:36:30;15.40;99.90
2010;DHT22;1008;47.404;8.502;2022-10-31T09:38:57;15.50;99.90
2010;DHT22;1008;47.404;8.502;2022-10-31T09:41:29;15.20;99.90
2010;DHT22;1008;47.404;8.502;2022-10-31T09:44:04;15.10;99.90
2010;DHT22;1008;47.404;8.502;2022-10-31T09:46:44;15.10;99.90
2010;DHT22;1008;47.404;8.502;2022-10-31T09:49:32;14.80;99.90
2010;DHT22;1008;47.404;8.502;2022-10-31T09:52:03;14.60;99.90
2010;DHT22;1008;47.404;8.502;2022-10-31T09:54:35;14.40;99.90
2010;DHT22;1008;47.404;8.502;2022-10-31T09:57:05;14.40;99.90
2010;DHT22;1008;47.404;8.502;2022-10-31T09:59:39;14.20;99.90
2010;DHT22;1008;47.404;8.502;2022-10-31T10:02:15;14.30;99.90
2010;DHT22;1008;47.404;8.502;2022-10-31T10:04:45;14.30;99.90
2010;DHT22;1008;47.404;8.502;2022-10-31T10:07:27;14.30;99.90
2010;DHT22;1008;47.404;8.502;2022-10-31T10:09:55;14.20;99.90
2010;DHT22;1008;47.404;8.502;2022-10-31T10:12:36;14.30;99.90
2010;DHT22;1008;47.404;8.502;2022-10-31T10:15:23;14.60;99.90
2010;DHT22;1008;47.404;8.502;2022-10-31T10:17:58;14.50;99.90
2010;DHT22;1008;47.404;8.502;2022-10-31T10:20:34;14.40;99.90
2010;DHT22;1008;47.404;8.502;2022-10-31T10:23:23;14.20;99.90
2010;DHT22;1008;47.404;8.502;2022-10-31T10:26:01;14.20;99.90
2010;DHT22;1008;47.404;8.502;2022-10-31T10:28:31;14.40;99.90
2010;DHT22;1008;47.404;8.502;2022-10-31T10:31:07;14.30;99.90
2010;DHT22;1008;47.404;8.502;2022-10-31T10:33:39;14.10;99.90
2010;DHT22;1008;47.404;8.502;2022-10-31T10:36:12;14.20;99.90
2010;DHT22;1008;47.404;8.502;2022-10-31T10:38:47;14.40;99.90
2010;DHT22;1008;47.404;8.502;2022-10-31T10:41:17;14.50;99.90
2010;DHT22;1008;47.404;8.502;2022-10-31T10:43:44;14.60;99.90
2010;DHT22;1008;47.404;8.502;2022-10-31T10:46:19;14.40;99.90
2010;DHT22;1008;47.404;8.502;2022-10-31T10:49:16;14.60;99.90
2010;DHT22;1008;47.404;8.502;2022-10-31T10:51:46;14.60;99.90
2010;DHT22;1008;47.404;8.502;2022-10-31T10:57:27;14.60;99.90
2010;DHT22;1008;47.404;8.502;2022-10-31T10:59:56;14.60;99.90
2010;DHT22;1008;47.404;8.502;2022-10-31T11:02:25;14.50;99.90
2010;DHT22;1008;47.404;8.502;2022-10-31T11:04:55;14.40;99.90
2010;DHT22;1008;47.404;8.502;2022-10-31T11:07:23;14.40;99.90
2010;DHT22;1008;47.404;8.502;2022-10-31T11:09:50;14.30;99.90
2010;DHT22;1008;47.404;8.502;2022-10-31T11:12:21;14.40;99.90
2010;DHT22;1008;47.404;8.502;2022-10-31T11:14:50;14.10;99.90
2010;DHT22;1008;47.404;8.502;2022-10-31T11:17:25;14.20;99.90
2010;DHT22;1008;47.404;8.502;2022-10-31T11:20:17;14.30;99.90
2010;DHT22;1008;47.404;8.502;2022-10-31T11:22:49;14.70;99.90
2010;DHT22;1008;47.404;8.502;2022-10-31T11:25:26;15.00;99.90
2010;DHT22;1008;47.404;8.502;2022-10-31T11:27:59;15.30;99.90
2010;DHT22;1008;47.404;8.502;2022-10-31T11:30:26;15.30;99.90
2010;DHT22;1008;47.404;8.502;2022-10-31T11:32:53;15.50;99.90
2010;DHT22;1008;47.404;8.502;2022-10-31T11:35:22;15.70;99.90
2010;DHT22;1008;47.404;8.502;2022-10-31T11:37:52;15.90;99.90
2010;DHT22;1008;47.404;8.502;2022-10-31T11:40:21;16.20;99.90
2010;DHT22;1008;47.404;8.502;2022-10-31T11:42:50;16.50;99.90
2010;DHT22;1008;47.404;8.502;2022-10-31T11:45:27;16.80;99.90
2010;DHT22;1008;47.404;8.502;2022-10-31T11:47:56;17.50;99.90
2010;DHT22;1008;47.404;8.502;2022-10-31T11:50:27;17.90;99.90
2010;DHT22;1008;47.404;8.502;2022-10-31T11:52:54;18.00;99.90
2010;DHT22;1008;47.404;8.502;2022-10-31T11:55:31;18.30;99.90
2010;DHT22;1008;47.404;8.502;2022-10-31T11:57:59;18.60;99.90
2010;DHT22;1008;47.404;8.502;2022-10-31T12:00:27;18.70;99.90
2010;DHT22;1008;47.404;8.502;2022-10-31T12:03:10;18.90;99.90
2010;DHT22;1008;47.404;8.502;2022-10-31T12:05:39;19.40;99.90
2010;DHT22;1008;47.404;8.502;2022-10-31T12:08:08;19.90;99.90
2010;DHT22;1008;47.404;8.502;2022-10-31T12:10:44;20.30;99.90
2010;DHT22;1008;47.404;8.502;2022-10-31T12:13:27;21.10;99.90
2010;DHT22;1008;47.404;8.502;2022-10-31T12:16:04;21.60;99.90
2010;DHT22;1008;47.404;8.502;2022-10-31T12:18:46;21.40;99.90
2010;DHT22;1008;47.404;8.502;2022-10-31T12:21:27;20.60;99.90
2010;DHT22;1008;47.404;8.502;2022-10-31T12:24:07;21.30;99.90
2010;DHT22;1008;47.404;8.502;2022-10-31T12:26:42;21.10;99.90
2010;DHT22;1008;47.404;8.502;2022-10-31T12:29:24;21.00;99.90
2010;DHT22;1008;47.404;8.502;2022-10-31T12:32:10;21.20;99.90
2010;DHT22;1008;47.404;8.502;2022-10-31T12:35:04;20.90;99.90
2010;DHT22;1008;47.404;8.502;2022-10-31T12:37:46;20.60;99.90
2010;DHT22;1008;47.404;8.502;2022-10-31T12:40:42;21.40;99.90
2010;DHT22;1008;47.404;8.502;2022-10-31T12:43:25;21.90;99.90
2010;DHT22;1008;47.404;8.502;2022-10-31T12:45:57;22.30;99.90
2010;DHT22;1008;47.404;8.502;2022-10-31T12:51:18;22.90;99.90
2010;DHT22;1008;47.404;8.502;2022-10-31T12:53:59;22.90;99.90
2010;DHT22;1008;47.404;8.502;2022-10-31T12:56:41;22.70;99.90
2010;DHT22;1008;47.404;8.502;2022-10-31T12:59:17;22.60;99.90
2010;DHT22;1008;47.404;8.502;2022-10-31T13:01:50;22.60;99.90
2010;DHT22;1008;47.404;8.502;2022-10-31T13:04:22;22.40;99.90
2010;DHT22;1008;47.404;8.502;2022-10-31T13:06:55;22.60;99.90
2010;DHT22;1008;47.404;8.502;2022-10-31T13:09:28;22.50;99.90
2010;DHT22;1008;47.404;8.502;2022-10-31T13:11:59;22.70;99.90
2010;DHT22;1008;47.404;8.502;2022-10-31T13:14:31;22.00;99.90
2010;DHT22;1008;47.404;8.502;2022-10-31T13:17:01;22.20;99.90
2010;DHT22;1008;47.404;8.502;2022-10-31T13:19:31;21.70;99.90
2010;DHT22;1008;47.404;8.502;2022-10-31T13:22:04;21.70;99.90
2010;DHT22;1008;47.404;8.502;2022-10-31T13:24:38;22.20;99.90
2010;DHT22;1008;47.404;8.502;2022-10-31T13:27:12;22.50;99.90
2010;DHT22;1008;47.404;8.502;2022-10-31T13:29:44;22.80;99.90
2010;DHT22;1008;47.404;8.502;2022-10-31T13:32:15;23.20;99.90
2010;DHT22;1008;47.404;8.502;2022-10-31T13:34:46;23.30;99.90
2010;DHT22;1008;47.404;8.502;2022-10-31T13:37:19;23.20;99.90
2010;DHT22;1008;47.404;8.502;2022-10-31T13:40:03;23.30;99.90
2010;DHT22;1008;47.404;8.502;2022-10-31T13:42:46;23.30;99.90
2010;DHT22;1008;47.404;8.502;2022-10-31T13:45:17;23.40;99.90
2010;DHT22;1008;47.404;8.502;2022-10-31T13:47:55;23.00;99.90
2010;DHT22;1008;47.404;8.502;2022-10-31T13:50:24;22.90;99.90
2010;DHT22;1008;47.404;8.502;2022-10-31T13:52:51;22.90;99.90
2010;DHT22;1008;47.404;8.502;2022-10-31T13:55:40;23.20;99.90
2010;DHT22;1008;47.404;8.502;2022-10-31T13:58:21;23.20;99.90
2010;DHT22;1008;47.404;8.502;2022-10-31T14:01:03;23.10;99.90
2010;DHT22;1008;47.404;8.502;2022-10-31T14:03:33;23.10;99.90
2010;DHT22;1008;47.404;8.502;2022-10-31T14:06:02;22.90;99.90
2010;DHT22;1008;47.404;8.502;2022-10-31T14:08:31;22.80;99.90
2010;DHT22;1008;47.404;8.502;2022-10-31T14:11:01;23.00;99.90
2010;DHT22;1008;47.404;8.502;2022-10-31T14:13:32;23.00;99.90
2010;DHT22;1008;47.404;8.502;2022-10-31T14:16:04;23.00;99.90
2010;DHT22;1008;47.404;8.502;2022-10-31T14:18:34;23.10;99.90
2010;DHT22;1008;47.404;8.502;2022-10-31T14:21:14;23.10;99.90
2010;DHT22;1008;47.404;8.502;2022-10-31T14:23:40;22.90;99.90
2010;DHT22;1008;47.404;8.502;2022-10-31T14:26:32;22.80;99.90
2010;DHT22;1008;47.404;8.502;2022-10-31T14:29:02;22.90;99.90
2010;DHT22;1008;47.404;8.502;2022-10-31T14:31:32;22.70;99.90
2010;DHT22;1008;47.404;8.502;2022-10-31T14:34:20;22.50;99.90
2010;DHT22;1008;47.404;8.502;2022-10-31T14:37:16;22.30;99.90
2010;DHT22;1008;47.404;8.502;2022-10-31T14:39:54;22.20;99.90
2010;DHT22;1008;47.404;8.502;2022-10-31T14:42:40;22.30;99.90
2010;DHT22;1008;47.404;8.502;2022-10-31T14:45:17;22.20;99.90
2010;DHT22;1008;47.404;8.502;2022-10-31T14:47:56;22.20;99.90
2010;DHT22;1008;47.404;8.502;2022-10-31T14:50:37;22.10;99.90
2010;DHT22;1008;47.404;8.502;2022-10-31T14:53:06;22.00;99.90
2010;DHT22;1008;47.404;8.502;2022-10-31T14:55:36;21.80;99.90
2010;DHT22;1008;47.404;8.502;2022-10-31T14:58:08;21.50;99.90
2010;DHT22;1008;47.404;8.502;2022-10-31T15:00:35;21.40;99.90
2010;DHT22;1008;47.404;8.502;2022-10-31T15:03:07;21.20;99.90
2010;DHT22;1008;47.404;8.502;2022-10-31T15:05:42;21.00;99.90
2010;DHT22;1008;47.404;8.502;2022-10-31T15:08:14;20.70;99.90
2010;DHT22;1008;47.404;8.502;2022-10-31T15:10:51;20.60;99.90
2010;DHT22;1008;47.404;8.502;2022-10-31T15:13:21;20.40;99.90
2010;DHT22;1008;47.404;8.502;2022-10-31T15:15:48;20.40;99.90
2010;DHT22;1008;47.404;8.502;2022-10-31T15:18:17;20.40;99.90
2010;DHT22;1008;47.404;8.502;2022-10-31T15:20:45;20.30;99.90
2010;DHT22;1008;47.404;8.502;2022-10-31T15:23:20;19.90;99.90
2010;DHT22;1008;47.404;8.502;2022-10-31T15:25:47;20.10;99.90
2010;DHT22;1008;47.404;8.502;2022-10-31T15:28:15;20.10;99.90
2010;DHT22;1008;47.404;8.502;2022-10-31T15:30:52;19.80;99.90
2010;DHT22;1008;47.404;8.502;2022-10-31T15:33:21;19.60;99.90
2010;DHT22;1008;47.404;8.502;2022-10-31T15:35:55;19.50;99.90
2010;DHT22;1008;47.404;8.502;2022-10-31T15:38:22;19.50;99.90
2010;DHT22;1008;47.404;8.502;2022-10-31T15:40:58;19.20;99.90
2010;DHT22;1008;47.404;8.502;2022-10-31T15:43:25;18.90;99.90
2010;DHT22;1008;47.404;8.502;2022-10-31T15:45:55;18.70;99.90
2010;DHT22;1008;47.404;8.502;2022-10-31T15:48:23;18.40;99.90
2010;DHT22;1008;47.404;8.502;2022-10-31T15:50:53;18.30;99.90
2010;DHT22;1008;47.404;8.502;2022-10-31T15:53:23;18.20;99.90
2010;DHT22;1008;47.404;8.502;2022-10-31T15:55:53;18.00;99.90
2010;DHT22;1008;47.404;8.502;2022-10-31T15:58:21;17.90;99.90
2010;DHT22;1008;47.404;8.502;2022-10-31T16:00:59;17.90;99.90
2010;DHT22;1008;47.404;8.502;2022-10-31T16:03:27;17.70;99.90
2010;DHT22;1008;47.404;8.502;2022-10-31T16:05:56;17.50;99.90
2010;DHT22;1008;47.404;8.502;2022-10-31T16:08:25;17.60;99.90
2010;DHT22;1008;47.404;8.502;2022-10-31T16:10:52;17.50;99.90
2010;DHT22;1008;47.404;8.502;2022-10-31T16:13:23;17.40;99.90
2010;DHT22;1008;47.404;8.502;2022-10-31T16:15:54;17.20;99.90
2010;DHT22;1008;47.404;8.502;2022-10-31T16:18:23;17.00;99.90
2010;DHT22;1008;47.404;8.502;2022-10-31T16:20:52;17.10;99.90
2010;DHT22;1008;47.404;8.502;2022-10-31T16:23:21;17.00;99.90
2010;DHT22;1008;47.404;8.502;2022-10-31T16:25:50;17.10;99.90
2010;DHT22;1008;47.404;8.502;2022-10-31T16:28:18;16.90;99.90
2010;DHT22;1008;47.404;8.502;2022-10-31T16:30:47;16.80;99.90